Time;durP1;ratioP1;P1;durP2;ratioP2;P2;SDS_P1;SDS_P2;PMS_P1;PMS_P2;Temp;Humidity;BMP_temperature;BMP_pressure;BME280_temperature;BME280_humidity;BME280_pressure;Samples;Min_cycle;Max_cycle;Signal;HPM_P1;HPM_P2
2023/09/16 00:00:42;;;;;;;11.63;10.35;;;;;;;17.28;65.16;101310.38;5026967;28;20034;-73
2023/09/16 00:03:07;;;;;;;14.50;11.10;;;;;;;17.25;65.19;101302.53;5020604;28;20605;-72
2023/09/16 00:05:34;;;;;;;12.30;10.98;;;;;;;17.21;65.56;101316.28;5031526;28;20124;-73
2023/09/16 00:07:59;;;;;;;14.70;11.60;;;;;;;17.21;65.57;101307.88;5031729;28;20385;-73
2023/09/16 00:10:24;;;;;;;16.10;11.13;;;;;;;17.16;65.58;101313.50;5031511;28;20038;-72
2023/09/16 00:12:50;;;;;;;12.40;11.02;;;;;;;17.18;64.91;101308.47;5032193;28;20021;-73
2023/09/16 00:15:15;;;;;;;12.38;11.13;;;;;;;17.18;65.42;101308.47;5031834;28;20104;-72
2023/09/16 00:17:43;;;;;;;12.05;10.50;;;;;;;17.11;65.43;101314.38;5030504;28;20025;-72
2023/09/16 00:20:14;;;;;;;11.70;10.07;;;;;;;17.16;65.12;101316.31;5028877;28;20500;-72
2023/09/16 00:22:45;;;;;;;13.27;11.17;;;;;;;17.09;65.40;101324.19;5033768;28;20127;-72
2023/09/16 00:25:11;;;;;;;12.38;11.07;;;;;;;17.08;65.32;101325.31;5030581;28;20109;-72
2023/09/16 00:27:39;;;;;;;11.93;10.15;;;;;;;17.01;65.54;101328.41;5021519;28;20109;-72
2023/09/16 00:30:05;;;;;;;13.20;10.80;;;;;;;16.95;65.78;101326.78;5027714;28;20040;-72
2023/09/16 00:32:32;;;;;;;13.07;10.40;;;;;;;17.00;65.73;101326.75;5011171;28;20022;-72
2023/09/16 00:34:58;;;;;;;13.00;10.80;;;;;;;17.02;65.54;101330.13;5019557;28;20472;-72
2023/09/16 00:37:24;;;;;;;11.50;10.30;;;;;;;16.97;65.66;101315.25;5028394;28;20037;-72
2023/09/16 00:39:50;;;;;;;11.93;10.55;;;;;;;16.96;65.78;101316.38;5031509;28;20388;-73
2023/09/16 00:42:18;;;;;;;12.30;10.95;;;;;;;16.95;65.51;101314.72;5031634;28;20029;-72
2023/09/16 00:44:43;;;;;;;12.55;11.32;;;;;;;16.99;65.39;101318.63;5028305;28;20074;-73
2023/09/16 00:47:09;;;;;;;11.48;10.23;;;;;;;16.96;65.43;101313.59;5013822;28;20115;-73
2023/09/16 00:49:35;;;;;;;14.38;10.07;;;;;;;16.92;65.61;101314.16;5011659;28;20437;-72
2023/09/16 00:52:02;;;;;;;11.35;10.13;;;;;;;16.95;65.65;101311.91;5018410;28;20087;-72
2023/09/16 00:54:28;;;;;;;11.75;10.43;;;;;;;16.89;65.74;101300.69;5031466;28;20033;-72
2023/09/16 00:56:55;;;;;;;11.70;10.60;;;;;;;16.85;65.74;101293.13;5031479;28;20025;-73
2023/09/16 00:59:24;;;;;;;11.73;10.52;;;;;;;16.86;65.67;101295.69;5030736;28;20041;-72
2023/09/16 01:01:53;;;;;;;14.82;11.02;;;;;;;16.76;65.92;101295.69;5035266;28;20694;-72
2023/09/16 01:04:21;;;;;;;11.32;10.05;;;;;;;16.76;66.08;101298.50;5025296;28;20022;-72
2023/09/16 01:06:50;;;;;;;14.25;10.65;;;;;;;16.79;65.79;101295.13;5017574;28;20388;-73
2023/09/16 01:09:21;;;;;;;14.20;9.93;;;;;;;16.70;66.13;101293.97;5033807;28;20041;-72
2023/09/16 01:11:46;;;;;;;13.98;10.55;;;;;;;16.63;65.99;101291.50;5035123;28;20052;-73
2023/09/16 01:14:15;;;;;;;13.27;10.98;;;;;;;16.63;66.07;101285.06;5034282;28;20461;-73
2023/09/16 01:16:46;;;;;;;14.02;11.18;;;;;;;16.59;66.00;101293.19;5034934;28;20091;-73
2023/09/16 01:19:26;;;;;;;13.20;11.85;;;;;;;16.61;66.04;101288.13;5032365;28;20022;-72
2023/09/16 01:21:52;;;;;;;12.75;11.02;;;;;;;16.58;65.99;101293.44;5033626;28;20033;-73
2023/09/16 01:24:25;;;;;;;12.95;11.20;;;;;;;16.54;65.96;101290.38;5032903;28;20034;-72
2023/09/16 01:26:50;;;;;;;12.13;10.63;;;;;;;16.53;66.03;101283.09;5018417;28;20030;-72
2023/09/16 01:29:20;;;;;;;12.48;10.75;;;;;;;16.53;66.09;101285.06;5014776;28;20025;-72
2023/09/16 01:31:46;;;;;;;13.07;10.27;;;;;;;16.57;65.92;101284.19;5014684;28;20117;-73
2023/09/16 01:34:24;;;;;;;12.23;10.35;;;;;;;16.51;65.82;101287.31;5014092;28;20033;-73
2023/09/16 01:36:57;;;;;;;14.45;10.70;;;;;;;16.50;65.93;101296.81;5013917;28;20460;-73
2023/09/16 01:39:24;;;;;;;11.35;9.82;;;;;;;16.46;66.13;101288.13;5018343;28;20062;-72
2023/09/16 01:41:58;;;;;;;13.93;10.63;;;;;;;16.48;65.95;101285.06;5013736;28;20481;-72
2023/09/16 01:44:24;;;;;;;14.02;9.65;;;;;;;16.45;66.04;101284.50;5033272;28;20025;-72
2023/09/16 01:46:55;;;;;;;11.43;10.27;;;;;;;16.45;65.79;101281.69;5022787;28;20025;-72
2023/09/16 01:49:20;;;;;;;12.60;11.00;;;;;;;16.41;66.18;101285.34;5028055;28;20021;-72
2023/09/16 01:51:46;;;;;;;11.25;10.02;;;;;;;16.42;66.07;101278.63;5026558;28;20296;-73
2023/09/16 01:54:11;;;;;;;14.48;10.25;;;;;;;16.42;66.01;101281.41;5032807;28;20068;-72
2023/09/16 01:56:36;;;;;;;12.48;10.05;;;;;;;16.41;65.99;101274.97;5028363;28;20036;-73
2023/09/16 01:59:02;;;;;;;11.43;10.25;;;;;;;16.39;66.16;101270.81;5053170;28;20053;-72
2023/09/16 02:01:28;;;;;;;12.18;10.40;;;;;;;16.34;66.34;101280.03;5033767;28;20472;-72
2023/09/16 02:03:55;;;;;;;14.18;10.48;;;;;;;16.38;66.03;101275.53;5033202;28;20023;-73
2023/09/16 02:06:20;;;;;;;11.27;10.00;;;;;;;16.31;66.30;101274.13;5032385;28;20029;-72
2023/09/16 02:08:46;;;;;;;10.52;9.38;;;;;;;16.33;66.15;101264.34;5033065;28;20079;-72
2023/09/16 02:11:11;;;;;;;11.20;10.07;;;;;;;16.31;66.12;101272.22;5017628;28;20085;-72
2023/09/16 02:13:36;;;;;;;11.40;10.18;;;;;;;16.30;66.31;101262.09;5021727;28;20030;-72
2023/09/16 02:16:02;;;;;;;12.15;10.80;;;;;;;16.24;66.67;101274.44;5029293;28;20056;-72
2023/09/16 02:18:27;;;;;;;12.80;10.55;;;;;;;16.22;66.68;101264.63;5033013;28;20053;-72
2023/09/16 02:20:53;;;;;;;14.55;11.00;;;;;;;16.24;66.60;101280.03;5031137;28;20094;-72
2023/09/16 02:23:18;;;;;;;11.93;10.10;;;;;;;16.23;66.27;101267.16;5031228;28;20087;-72
2023/09/16 02:25:43;;;;;;;13.48;10.75;;;;;;;16.20;66.77;101271.38;5032801;28;20017;-72
2023/09/16 02:28:09;;;;;;;13.07;10.23;;;;;;;16.17;66.81;101276.69;5032099;28;20025;-72
2023/09/16 02:30:34;;;;;;;13.00;11.10;;;;;;;16.15;67.08;101270.50;5022148;28;20032;-72
2023/09/16 02:32:59;;;;;;;13.18;10.38;;;;;;;16.14;66.83;101271.63;5020939;28;20026;-72
2023/09/16 02:35:25;;;;;;;13.13;10.73;;;;;;;16.13;66.90;101272.75;5031768;28;20042;-73
2023/09/16 02:37:50;;;;;;;15.57;10.90;;;;;;;16.09;67.16;101271.66;5031681;28;20029;-72
2023/09/16 02:40:16;;;;;;;13.27;10.63;;;;;;;16.08;66.95;101264.38;5029277;28;20534;-73
2023/09/16 02:42:44;;;;;;;12.85;10.85;;;;;;;16.04;67.17;101266.06;5032295;28;20053;-72
2023/09/16 02:45:10;;;;;;;11.25;10.05;;;;;;;16.02;67.07;101268.28;5030657;28;20036;-72
2023/09/16 02:47:35;;;;;;;12.00;10.88;;;;;;;16.04;67.13;101268.84;5024908;28;20112;-72
2023/09/16 02:50:01;;;;;;;11.68;10.25;;;;;;;16.04;67.12;101274.47;5030576;28;20113;-72
2023/09/16 02:52:26;;;;;;;12.38;11.18;;;;;;;16.00;67.25;101270.53;5030729;28;20071;-72
2023/09/16 02:54:57;;;;;;;12.45;10.65;;;;;;;16.01;67.25;101275.00;5031627;28;20033;-73
2023/09/16 02:57:22;;;;;;;13.13;10.48;;;;;;;15.98;67.08;101269.97;5020397;28;20120;-72
2023/09/16 02:59:47;;;;;;;12.20;10.48;;;;;;;16.01;67.34;101263.81;5026750;28;20124;-72
2023/09/16 03:02:13;;;;;;;13.35;11.00;;;;;;;16.00;67.71;101260.16;5031415;28;20033;-73
2023/09/16 03:04:38;;;;;;;11.85;10.60;;;;;;;16.00;67.60;101270.53;5029804;28;20029;-73
2023/09/16 03:07:04;;;;;;;12.77;10.70;;;;;;;15.94;67.63;101264.91;5017749;28;20025;-73
2023/09/16 03:09:29;;;;;;;14.80;11.15;;;;;;;15.94;68.08;101261.28;5027389;28;20034;-72
2023/09/16 03:11:57;;;;;;;15.13;11.23;;;;;;;15.91;67.63;101259.88;5030565;28;20835;-72
2023/09/16 03:14:22;;;;;;;12.57;11.30;;;;;;;15.94;67.67;101255.66;5031141;28;20029;-72
2023/09/16 03:16:48;;;;;;;13.18;11.13;;;;;;;15.91;67.60;101257.06;5031010;28;20040;-72
2023/09/16 03:19:16;;;;;;;13.70;10.90;;;;;;;15.94;67.60;101250.06;5031730;28;20033;-72
2023/09/16 03:21:41;;;;;;;14.73;11.00;;;;;;;15.94;67.49;101253.72;5027373;28;20029;-73
2023/09/16 03:24:06;;;;;;;14.73;11.63;;;;;;;15.90;67.70;101249.78;5012445;28;20099;-72
2023/09/16 03:26:32;;;;;;;13.75;11.77;;;;;;;15.91;67.91;101254.25;5031740;28;20498;-72
2023/09/16 03:28:57;;;;;;;14.68;12.25;;;;;;;15.86;67.91;101250.63;5032586;28;20033;-72
2023/09/16 03:31:22;;;;;;;12.63;11.27;;;;;;;15.83;68.19;101245.59;5031936;28;20036;-72
2023/09/16 03:33:48;;;;;;;13.23;11.82;;;;;;;15.79;68.25;101255.66;5031624;28;20693;-72
2023/09/16 03:36:16;;;;;;;13.43;11.25;;;;;;;15.83;67.92;101256.78;5032307;28;20034;-72
2023/09/16 03:38:52;;;;;;;12.95;11.40;;;;;;;15.80;68.03;101252.59;5030123;28;20033;-72
2023/09/16 03:41:17;;;;;;;13.50;11.73;;;;;;;15.81;68.44;101251.47;5030759;28;20108;-72
2023/09/16 03:43:43;;;;;;;12.45;11.25;;;;;;;15.73;67.90;101242.78;5031783;28;20068;-72
2023/09/16 03:46:09;;;;;;;15.35;11.80;;;;;;;15.75;68.15;101248.94;5031228;28;20116;-72
2023/09/16 03:48:34;;;;;;;14.38;11.77;;;;;;;15.70;68.24;101244.19;5031284;28;20044;-72
2023/09/16 03:51:00;;;;;;;12.88;10.82;;;;;;;15.73;67.79;101246.44;5031863;28;20507;-72
2023/09/16 03:53:26;;;;;;;13.10;10.73;;;;;;;15.73;68.01;101240.84;5032164;28;20112;-72
2023/09/16 03:55:51;;;;;;;12.80;11.10;;;;;;;15.67;68.04;101239.13;5023114;28;20394;-72
2023/09/16 03:58:17;;;;;;;14.13;11.70;;;;;;;15.70;68.25;101235.78;5014492;28;20033;-72
2023/09/16 04:00:43;;;;;;;14.32;10.90;;;;;;;15.69;67.83;101231.31;5031297;28;20087;-72
2023/09/16 04:03:08;;;;;;;16.75;10.85;;;;;;;15.70;68.07;101230.19;5031187;28;20060;-72
2023/09/16 04:05:33;;;;;;;16.05;11.30;;;;;;;15.67;68.22;101233.53;5031801;28;20461;-72
2023/09/16 04:07:59;;;;;;;14.40;11.55;;;;;;;15.66;68.09;101237.47;5031922;28;20088;-72
2023/09/16 04:10:24;;;;;;;13.05;11.32;;;;;;;15.63;68.14;101233.22;5030549;28;20033;-73
2023/09/16 04:12:49;;;;;;;18.58;11.45;;;;;;;15.66;68.31;101234.66;5017047;28;20188;-72
2023/09/16 04:15:15;;;;;;;14.70;12.00;;;;;;;15.59;68.35;101236.84;5013677;28;20034;-72
2023/09/16 04:17:41;;;;;;;14.88;11.90;;;;;;;15.61;68.26;101232.66;5020606;28;20429;-72
2023/09/16 04:20:06;;;;;;;13.63;11.55;;;;;;;15.62;68.25;101233.50;5026165;28;20040;-72
2023/09/16 04:22:32;;;;;;;18.30;11.52;;;;;;;15.60;68.36;101232.94;5019347;28;20362;-72
2023/09/16 04:24:58;;;;;;;13.52;11.75;;;;;;;15.57;68.47;101247.50;5024088;28;20034;-72
2023/09/16 04:27:23;;;;;;;13.88;11.20;;;;;;;15.57;68.38;101239.94;5029136;28;20024;-72
2023/09/16 04:29:48;;;;;;;14.10;10.93;;;;;;;15.55;68.72;101235.72;5027264;28;20025;-72
2023/09/16 04:32:14;;;;;;;12.88;11.57;;;;;;;15.50;68.66;101239.38;5014496;28;20830;-72
2023/09/16 04:34:39;;;;;;;21.00;12.43;;;;;;;15.54;68.71;101236.84;5016425;28;20029;-72
2023/09/16 04:37:08;;;;;;;18.35;12.43;;;;;;;15.46;68.84;101233.47;5034590;28;20485;-73
2023/09/16 04:39:34;;;;;;;14.52;11.95;;;;;;;15.43;68.80;101231.22;5034757;28;20056;-72
2023/09/16 04:41:59;;;;;;;13.60;11.40;;;;;;;15.44;68.78;101232.94;5035497;28;20022;-73
2023/09/16 04:44:27;;;;;;;15.75;12.32;;;;;;;15.41;68.96;101236.28;5031600;28;20022;-72
2023/09/16 04:46:53;;;;;;;14.38;12.55;;;;;;;15.43;68.61;101234.03;5023266;28;20028;-73
2023/09/16 04:49:19;;;;;;;15.73;11.50;;;;;;;15.45;68.62;101231.81;5026920;28;20029;-73
2023/09/16 04:51:45;;;;;;;13.50;12.10;;;;;;;15.43;68.82;101225.63;5019600;28;20026;-72
2023/09/16 04:54:11;;;;;;;15.60;13.23;;;;;;;15.42;69.07;101231.50;5015543;28;20080;-73
2023/09/16 04:56:36;;;;;;;14.55;12.38;;;;;;;15.38;69.22;101234.03;5019685;28;20034;-73
2023/09/16 04:59:02;;;;;;;13.75;12.23;;;;;;;15.41;69.21;101225.09;5025269;28;20050;-75
2023/09/16 05:01:29;;;;;;;13.80;12.30;;;;;;;15.40;69.01;101231.78;5030887;28;20103;-71
2023/09/16 05:03:55;;;;;;;14.95;12.63;;;;;;;15.39;69.09;101226.47;5015099;28;20025;-73
2023/09/16 05:06:20;;;;;;;16.10;12.27;;;;;;;15.39;69.27;101232.91;5017553;28;20454;-75
2023/09/16 05:08:47;;;;;;;14.07;11.35;;;;;;;15.38;69.29;101230.38;5035157;28;20045;-73
2023/09/16 05:11:13;;;;;;;13.98;12.40;;;;;;;15.31;69.23;101230.63;5034832;28;20029;-71
2023/09/16 05:13:39;;;;;;;13.15;11.77;;;;;;;15.33;69.30;101230.38;5034128;28;20052;-73
2023/09/16 05:16:10;;;;;;;13.95;12.55;;;;;;;15.30;69.32;101228.97;5034330;28;20036;-74
2023/09/16 05:18:38;;;;;;;13.52;12.23;;;;;;;15.29;69.34;101230.09;5026551;28;20026;-75
2023/09/16 05:21:04;;;;;;;15.32;13.15;;;;;;;15.29;69.54;101235.69;5014817;28;20034;-75
2023/09/16 05:23:30;;;;;;;16.25;13.15;;;;;;;15.29;69.47;101230.09;5018284;28;20336;-74
2023/09/16 05:25:56;;;;;;;18.17;12.82;;;;;;;15.31;69.54;101233.44;5033862;28;20448;-74
2023/09/16 05:28:21;;;;;;;15.25;13.52;;;;;;;15.27;69.87;101232.31;5034434;28;20056;-75
2023/09/16 05:30:47;;;;;;;17.98;13.32;;;;;;;15.29;69.55;101232.03;5026088;28;20536;-74
2023/09/16 05:33:15;;;;;;;14.25;12.82;;;;;;;15.30;69.60;101226.16;5029688;28;20129;-75
2023/09/16 05:35:41;;;;;;;17.08;13.90;;;;;;;15.29;69.85;101230.09;5025802;28;20032;-74
2023/09/16 05:38:08;;;;;;;15.23;13.63;;;;;;;15.28;69.71;101238.75;5020934;28;20038;-75
2023/09/16 05:40:36;;;;;;;14.18;12.68;;;;;;;15.24;70.26;101232.84;5014239;28;20026;-74
2023/09/16 05:43:01;;;;;;;14.98;13.38;;;;;;;15.27;70.08;101232.31;5032723;28;20038;-73
2023/09/16 05:45:26;;;;;;;17.75;13.23;;;;;;;15.28;70.14;101228.38;5031712;28;20056;-75
2023/09/16 05:47:55;;;;;;;15.48;13.25;;;;;;;15.31;70.32;101227.00;5031838;28;20461;-74
2023/09/16 05:50:20;;;;;;;16.13;13.85;;;;;;;15.30;70.44;101233.72;5033936;28;20053;-71
2023/09/16 05:52:45;;;;;;;16.75;13.75;;;;;;;15.33;70.35;101241.56;5033870;28;20175;-71
2023/09/16 05:55:17;;;;;;;15.35;13.52;;;;;;;15.37;70.48;101237.09;5017760;28;20095;-73
2023/09/16 05:57:42;;;;;;;15.88;14.20;;;;;;;15.38;70.33;101239.63;5021717;28;20025;-73
2023/09/16 06:00:08;;;;;;;16.50;13.45;;;;;;;15.41;70.61;101238.22;5017121;28;20526;-73
2023/09/16 06:02:40;;;;;;;18.17;13.63;;;;;;;15.42;70.84;101240.75;5028652;28;20124;-71
2023/09/16 06:05:09;;;;;;;18.38;14.23;;;;;;;15.49;71.35;101239.66;5032227;28;20025;-73
2023/09/16 06:07:41;;;;;;;18.27;14.07;;;;;;;15.54;71.37;101239.66;5029929;28;20049;-73
2023/09/16 06:10:07;;;;;;;15.80;14.18;;;;;;;15.54;71.34;101245.25;5027395;28;20493;-73
2023/09/16 06:12:33;;;;;;;19.05;14.88;;;;;;;15.60;71.69;101250.59;5031619;28;20022;-72
2023/09/16 06:14:58;;;;;;;16.20;14.02;;;;;;;15.64;71.75;101237.72;5032610;28;20449;-73
2023/09/16 06:17:24;;;;;;;20.75;14.93;;;;;;;15.74;71.52;101236.91;5033382;28;20037;-73
2023/09/16 06:19:54;;;;;;;19.30;15.13;;;;;;;15.75;71.79;101246.97;5032788;28;20130;-73
2023/09/16 06:22:20;;;;;;;18.48;15.45;;;;;;;15.80;71.90;101240.53;5032123;28;20041;-73
2023/09/16 06:24:45;;;;;;;21.42;15.98;;;;;;;15.85;72.05;101249.81;5021892;28;20105;-73
2023/09/16 06:27:12;;;;;;;23.95;16.13;;;;;;;15.83;72.28;101248.38;5013536;28;20116;-73
2023/09/16 06:29:37;;;;;;;22.98;15.32;;;;;;;15.85;72.18;101244.19;5012942;28;20497;-73
2023/09/16 06:32:03;;;;;;;21.77;15.07;;;;;;;15.91;72.29;101247.81;5014596;28;20116;-73
2023/09/16 06:34:29;;;;;;;18.35;15.55;;;;;;;15.93;72.31;101249.25;5033200;28;20030;-73
2023/09/16 06:36:54;;;;;;;21.58;16.13;;;;;;;15.94;72.39;101248.13;5018654;28;20088;-73
2023/09/16 06:39:19;;;;;;;19.20;16.02;;;;;;;15.99;72.57;101255.66;5020250;28;20112;-73
2023/09/16 06:41:44;;;;;;;20.77;16.08;;;;;;;16.03;72.40;101251.19;5022712;28;20026;-73
2023/09/16 06:44:10;;;;;;;18.55;15.45;;;;;;;16.03;72.80;101256.78;5011918;28;20069;-73
2023/09/16 06:46:35;;;;;;;20.58;16.80;;;;;;;16.06;73.07;101258.19;5014934;28;20033;-73
2023/09/16 06:49:05;;;;;;;18.98;15.95;;;;;;;16.08;73.02;101259.59;5031053;28;20026;-73
2023/09/16 06:51:31;;;;;;;20.27;15.63;;;;;;;16.11;73.12;101266.59;5031712;28;20071;-72
2023/09/16 06:53:56;;;;;;;18.23;16.42;;;;;;;16.19;72.86;101261.28;5031789;28;20029;-73
2023/09/16 06:56:22;;;;;;;18.30;15.65;;;;;;;16.22;72.97;101262.66;5027236;28;20026;-73
2023/09/16 06:58:47;;;;;;;20.55;16.73;;;;;;;16.20;73.88;101256.53;5029518;28;20121;-73
2023/09/16 07:01:12;;;;;;;18.95;15.77;;;;;;;16.25;73.38;101252.88;5029475;28;20032;-72
2023/09/16 07:03:38;;;;;;;17.30;15.63;;;;;;;16.29;73.64;101254.81;5015050;28;20064;-67
2023/09/16 07:06:03;;;;;;;23.05;18.42;;;;;;;16.30;74.40;101248.09;5016568;28;20065;-73
2023/09/16 07:08:29;;;;;;;21.45;16.83;;;;;;;16.35;74.38;101253.72;5017526;28;20038;-73
2023/09/16 07:10:55;;;;;;;21.80;16.65;;;;;;;16.40;74.29;101250.91;5014142;28;20048;-73
2023/09/16 07:13:20;;;;;;;23.92;17.02;;;;;;;16.43;74.43;101250.34;5011944;28;20091;-73
2023/09/16 07:15:58;;;;;;;21.90;16.67;;;;;;;16.47;74.66;101250.63;5012868;28;20026;-73
2023/09/16 07:18:23;;;;;;;19.80;16.67;;;;;;;16.51;74.96;101250.88;5010721;28;20105;-73
2023/09/16 07:20:52;;;;;;;19.88;17.80;;;;;;;16.55;75.27;101247.22;5017726;28;20061;-73
2023/09/16 07:23:17;;;;;;;20.15;17.77;;;;;;;16.62;75.83;101236.56;5032395;28;20468;-73
2023/09/16 07:25:42;;;;;;;20.00;17.23;;;;;;;16.68;76.22;101241.03;5020351;28;20124;-72
2023/09/16 07:28:08;;;;;;;18.77;16.80;;;;;;;16.75;75.87;101234.31;5016355;28;20030;-72
2023/09/16 07:30:34;;;;;;;18.83;16.83;;;;;;;16.85;76.17;101249.13;5026473;28;20055;-72
2023/09/16 07:32:59;;;;;;;18.52;16.63;;;;;;;16.91;76.20;101247.16;5031464;28;20104;-72
2023/09/16 07:35:25;;;;;;;21.05;16.88;;;;;;;16.99;76.32;101248.53;5031945;28;20084;-73
2023/09/16 07:37:51;;;;;;;20.55;17.10;;;;;;;17.08;76.61;101244.81;5018893;28;20076;-73
2023/09/16 07:40:16;;;;;;;19.98;16.67;;;;;;;17.16;76.19;101249.84;5022948;28;20029;-73
2023/09/16 07:42:42;;;;;;;18.85;16.33;;;;;;;17.21;76.07;101260.19;5030714;28;20059;-73
2023/09/16 07:45:07;;;;;;;21.77;17.27;;;;;;;17.26;76.09;101254.56;5032057;28;20021;-73
2023/09/16 07:47:33;;;;;;;19.98;16.25;;;;;;;17.34;76.36;101255.94;5021189;28;20051;-72
2023/09/16 07:49:58;;;;;;;17.90;16.05;;;;;;;17.46;76.09;101258.41;5031746;28;20429;-73
2023/09/16 07:52:27;;;;;;;20.83;17.30;;;;;;;17.57;75.85;101248.78;5031737;28;20032;-73
2023/09/16 07:54:55;;;;;;;20.20;16.85;;;;;;;17.74;75.77;101260.44;5030993;28;20025;-72
2023/09/16 07:57:20;;;;;;;22.08;18.30;;;;;;;17.84;75.00;101260.44;5030003;28;20210;-73
2023/09/16 07:59:46;;;;;;;19.60;16.98;;;;;;;17.95;74.81;101255.53;5015066;28;20065;-73
2023/09/16 08:02:11;;;;;;;19.00;17.00;;;;;;;18.09;74.20;101264.16;5023172;28;20440;-73
2023/09/16 08:04:39;;;;;;;19.00;17.17;;;;;;;18.20;73.80;101253.69;5031516;28;20025;-73
2023/09/16 08:07:04;;;;;;;18.58;16.17;;;;;;;18.35;73.24;101262.81;5031504;28;20021;-73
2023/09/16 08:09:30;;;;;;;17.38;15.63;;;;;;;18.51;73.96;101271.06;5030058;28;20051;-73
2023/09/16 08:11:55;;;;;;;17.25;15.32;;;;;;;18.57;72.82;101265.09;5031407;28;20449;-73
2023/09/16 08:14:20;;;;;;;18.73;16.50;;;;;;;18.64;72.45;101259.97;5031383;28;20079;-72
2023/09/16 08:16:46;;;;;;;17.75;15.85;;;;;;;18.73;71.70;101265.81;5029846;28;20493;-72
2023/09/16 08:19:14;;;;;;;17.95;15.90;;;;;;;18.78;71.33;101267.72;5027777;28;20124;-72
2023/09/16 08:21:39;;;;;;;18.60;16.23;;;;;;;18.90;71.61;101270.94;5010895;28;20017;-73
2023/09/16 08:24:04;;;;;;;21.13;16.27;;;;;;;18.99;71.41;101269.19;5011502;28;20591;-73
2023/09/16 08:26:30;;;;;;;18.05;16.13;;;;;;;19.06;70.99;101268.78;5011619;28;20069;-73
2023/09/16 08:28:55;;;;;;;21.58;15.55;;;;;;;19.13;70.73;101269.28;5010644;28;20105;-73
2023/09/16 08:31:20;;;;;;;19.15;15.90;;;;;;;19.24;70.49;101267.19;5024838;28;20499;-73
2023/09/16 08:33:49;;;;;;;18.95;15.55;;;;;;;19.45;70.84;101273.34;5015172;28;20034;-72
2023/09/16 08:36:14;;;;;;;17.60;15.80;;;;;;;19.59;70.00;101274.28;5014224;28;20450;-73
2023/09/16 08:38:39;;;;;;;19.90;15.93;;;;;;;19.73;69.30;101278.06;5011605;28;20132;-73
2023/09/16 08:41:15;;;;;;;17.23;15.40;;;;;;;19.88;68.89;101281.78;5011331;28;20375;-73
2023/09/16 08:43:42;;;;;;;17.23;15.40;;;;;;;19.90;68.11;101288.78;5021624;28;20032;-73
2023/09/16 08:46:15;;;;;;;17.67;14.88;;;;;;;19.98;68.38;101284.44;5030892;28;20508;-74
2023/09/16 08:48:44;;;;;;;22.27;16.00;;;;;;;20.01;68.26;101281.84;5030985;28;20072;-73
2023/09/16 08:51:15;;;;;;;17.00;15.32;;;;;;;20.13;67.75;101295.47;5029895;28;20030;-72
2023/09/16 08:53:42;;;;;;;23.73;15.93;;;;;;;20.23;68.13;101286.84;5027348;28;20116;-73
2023/09/16 08:56:09;;;;;;;17.77;15.27;;;;;;;20.25;67.46;101295.84;5014752;28;20184;-71
2023/09/16 08:58:39;;;;;;;18.63;15.25;;;;;;;20.33;67.83;101285.84;5022235;28;20029;-72
2023/09/16 09:01:04;;;;;;;14.43;11.52;;;;;;;20.47;66.42;101289.50;5024299;28;20052;-71
2023/09/16 09:03:31;;;;;;;14.73;13.18;;;;;;;20.52;66.81;101292.28;5024606;28;20453;-71
2023/09/16 09:05:57;;;;;;;11.02;8.82;;;;;;;20.67;65.48;101284.69;5019725;28;20131;-71
2023/09/16 09:08:22;;;;;;;18.05;14.18;;;;;;;20.73;65.60;101286.28;5020938;28;20412;-70
2023/09/16 09:10:48;;;;;;;11.48;9.55;;;;;;;20.81;64.74;101289.19;5014280;28;20046;-71
2023/09/16 09:13:13;;;;;;;14.30;12.65;;;;;;;20.82;64.24;101284.41;5025153;28;20029;-72
2023/09/16 09:15:44;;;;;;;15.90;12.98;;;;;;;20.86;63.84;101293.06;5017606;28;20084;-71
2023/09/16 09:18:11;;;;;;;12.68;11.35;;;;;;;20.89;63.61;101293.28;5015465;28;20108;-70
2023/09/16 09:20:37;;;;;;;11.80;10.07;;;;;;;20.89;63.18;101301.75;5015994;28;20115;-70
2023/09/16 09:23:03;;;;;;;10.77;9.65;;;;;;;20.87;63.38;101312.53;5024787;28;20079;-70
2023/09/16 09:25:31;;;;;;;12.25;10.45;;;;;;;20.88;61.87;101296.44;5023962;28;20037;-70
2023/09/16 09:27:57;;;;;;;12.25;10.35;;;;;;;20.95;62.65;101296.88;5019502;28;20030;-70
2023/09/16 09:30:29;;;;;;;11.45;10.30;;;;;;;20.96;62.85;101301.34;5023220;28;21190;-70
2023/09/16 09:32:58;;;;;;;;;;;;;;;20.94;64.35;101306.44;5022275;28;20029;-71
2023/09/16 09:35:25;;;;;;;11.45;10.10;;;;;;;21.03;64.00;101305.44;5029955;28;19928;-71
2023/09/16 09:37:51;;;;;;;12.43;9.43;;;;;;;21.07;62.97;101305.66;5024602;28;20026;-74
2023/09/16 09:40:20;;;;;;;13.18;9.80;;;;;;;21.12;62.89;101302.72;5023984;28;20033;-71
2023/09/16 09:42:50;;;;;;;12.93;10.32;;;;;;;21.21;63.46;101314.09;5026918;28;20087;-71
2023/09/16 09:45:18;;;;;;;17.00;12.07;;;;;;;21.18;63.63;101318.41;5026730;28;20061;-72
2023/09/16 09:47:45;;;;;;;15.55;12.35;;;;;;;21.14;63.91;101308.03;5029638;28;20108;-71
2023/09/16 09:50:18;;;;;;;14.93;12.07;;;;;;;21.14;63.57;101317.34;5028458;28;20033;-72
2023/09/16 09:52:50;;;;;;;14.95;12.35;;;;;;;21.17;64.75;101308.25;5028637;28;20033;-71
2023/09/16 09:55:19;;;;;;;15.85;14.10;;;;;;;21.19;64.89;101313.59;5032431;28;20043;-71
2023/09/16 09:57:46;;;;;;;15.32;12.52;;;;;;;21.20;64.02;101309.63;5019908;28;20033;-71
2023/09/16 10:00:16;;;;;;;15.20;12.27;;;;;;;21.21;63.84;101308.47;5027682;28;20038;-71
2023/09/16 10:02:42;;;;;;;16.20;11.77;;;;;;;21.31;63.37;101311.09;5028531;28;20079;-72
2023/09/16 10:05:13;;;;;;;15.40;12.68;;;;;;;21.41;62.93;101312.88;5031622;28;20041;-72
2023/09/16 10:07:41;;;;;;;15.05;13.43;;;;;;;21.48;62.64;101307.63;5020490;28;20120;-72
2023/09/16 10:10:12;;;;;;;13.05;11.63;;;;;;;21.54;62.40;101303.56;5032001;28;20043;-74
2023/09/16 10:12:39;;;;;;;15.32;13.02;;;;;;;21.62;62.04;101302.81;5032012;28;20029;-71
2023/09/16 10:15:07;;;;;;;17.15;12.90;;;;;;;21.70;63.30;101301.22;5024324;28;20030;-71
2023/09/16 10:17:33;;;;;;;13.85;12.35;;;;;;;21.73;61.78;101303.41;5029840;28;20548;-73
2023/09/16 10:19:59;;;;;;;14.77;12.15;;;;;;;21.77;60.89;101294.00;5032643;28;20033;-71
2023/09/16 10:22:25;;;;;;;12.98;11.35;;;;;;;21.80;60.58;101287.69;5022924;28;20037;-72
2023/09/16 10:24:53;;;;;;;17.20;11.70;;;;;;;21.87;60.83;101294.91;5025027;28;20373;-72
2023/09/16 10:27:22;;;;;;;15.15;11.73;;;;;;;21.92;60.86;101291.94;5017737;28;20477;-74
2023/09/16 10:29:48;;;;;;;14.30;12.73;;;;;;;21.99;61.01;101295.16;5024988;28;20060;-72
2023/09/16 10:32:18;;;;;;;14.50;12.07;;;;;;;22.01;60.91;101295.69;5024074;28;20393;-73
2023/09/16 10:34:47;;;;;;;13.77;12.27;;;;;;;22.06;61.12;101284.25;5032967;28;20112;-71
2023/09/16 10:37:19;;;;;;;14.40;12.90;;;;;;;22.15;61.88;101298.47;5027896;28;20033;-72
2023/09/16 10:39:49;;;;;;;15.35;12.43;;;;;;;22.17;61.26;101285.72;5029700;28;20029;-71
2023/09/16 10:42:19;;;;;;;13.07;11.77;;;;;;;22.18;60.56;101287.38;5028704;28;20553;-70
2023/09/16 10:44:46;;;;;;;14.43;12.32;;;;;;;22.19;60.69;101277.72;5028870;28;20120;-71
2023/09/16 10:47:14;;;;;;;14.07;11.88;;;;;;;22.25;60.62;101284.94;5030211;28;20048;-70
2023/09/16 10:49:39;;;;;;;18.80;12.20;;;;;;;22.24;60.12;101277.63;5023371;28;20069;-71
2023/09/16 10:52:09;;;;;;;15.23;12.73;;;;;;;22.25;60.15;101279.28;5031390;28;20061;-71
2023/09/16 10:55:07;;;;;;;15.77;11.82;;;;;;;22.23;60.63;101273.09;5029092;28;20029;-72
2023/09/16 10:58:00;;;;;;;13.90;12.15;;;;;;;22.23;60.94;101266.59;5023626;28;20044;-71
2023/09/16 11:00:27;;;;;;;13.02;11.73;;;;;;;22.25;60.22;101267.97;5027297;28;20034;-70
2023/09/16 11:02:58;;;;;;;14.65;12.52;;;;;;;22.29;60.82;101268.16;5024919;28;20571;-70
2023/09/16 11:05:23;;;;;;;13.38;11.98;;;;;;;22.41;61.13;101276.06;5028104;28;20068;-71
2023/09/16 11:07:53;;;;;;;14.40;12.32;;;;;;;22.44;60.14;101281.03;5028586;28;20069;-70